Time;durP1;ratioP1;P1;durP2;ratioP2;P2;SDS_P1;SDS_P2;PMS_P1;PMS_P2;Temp;Humidity;BMP_temperature;BMP_pressure;BME280_temperature;BME280_humidity;BME280_pressure;Samples;Min_cycle;Max_cycle;Signal;HPM_P1;HPM_P2
2022/04/22 00:02:13;;;;;;;7.80;4.00;;;;;;;7.14;72.19;99546.52;25101;1314;3056429;-66
2022/04/22 00:04:42;;;;;;;9.20;4.40;;;;;;;7.08;72.19;99543.83;25135;1316;3026404;-65
2022/04/22 00:07:17;;;;;;;9.70;4.90;;;;;;;6.97;72.44;99541.73;25067;1315;3049996;-64
2022/04/22 00:09:47;;;;;;;14.20;7.20;;;;;;;6.86;73.05;99548.64;25068;1315;3027173;-65
2022/04/22 00:12:16;;;;;;;24.90;9.30;;;;;;;7.35;72.82;99547.86;25082;1315;3027258;-66
2022/04/22 00:15:06;;;;;;;65.90;27.50;;;;;;;7.62;71.97;99546.77;25012;1315;3072184;-64
2022/04/22 00:17:35;;;;;;;51.10;24.00;;;;;;;7.73;71.18;99548.15;25126;1315;3027235;-67
2022/04/22 00:20:24;;;;;;;34.40;15.80;;;;;;;7.44;71.53;99548.47;25123;1316;3052622;-66
2022/04/22 00:23:12;;;;;;;22.20;9.80;;;;;;;6.97;73.11;99550.60;25085;1316;3055167;-63
2022/04/22 00:25:42;;;;;;;13.90;6.50;;;;;;;6.84;73.22;99546.45;25047;1315;3026504;-68
2022/04/22 00:28:11;;;;;;;10.60;4.20;;;;;;;6.66;73.75;99547.08;25100;1315;3026517;-66
2022/04/22 00:31:00;;;;;;;6.20;3.90;;;;;;;6.66;74.25;99545.00;25093;1315;3052652;-65
2022/04/22 00:33:30;;;;;;;6.40;3.80;;;;;;;7.41;73.43;99540.44;25106;1318;3026502;-69
2022/04/22 00:35:59;;;;;;;5.10;3.20;;;;;;;7.57;72.03;99532.54;25199;1315;3026406;-66
2022/04/22 00:38:42;;;;;;;9.20;3.90;;;;;;;7.37;72.22;99531.89;25514;1315;3053421;-64
2022/04/22 00:41:30;;;;;;;5.70;2.90;;;;;;;7.05;73.12;99534.92;25457;1316;3056430;-64
2022/04/22 00:44:00;;;;;;;9.10;4.10;;;;;;;6.95;73.10;99529.27;25184;1315;3026293;-70
2022/04/22 00:46:49;;;;;;;4.50;3.00;;;;;;;6.78;73.32;99533.68;24865;1316;3378754;-67
2022/04/22 00:49:18;;;;;;;5.40;2.90;;;;;;;6.61;73.85;99532.66;25032;1316;3026495;-64
2022/04/22 00:52:07;;;;;;;5.80;3.20;;;;;;;6.45;75.18;99533.15;25058;1315;3049913;-65
2022/04/22 00:54:36;;;;;;;6.20;3.10;;;;;;;7.20;74.04;99531.95;25036;1315;3029982;-64
2022/04/22 00:57:05;;;;;;;5.30;3.70;;;;;;;7.64;72.62;99531.52;25044;1317;3026713;-66
2022/04/22 00:59:34;;;;;;;7.80;3.70;;;;;;;7.67;72.24;99531.52;25021;1316;3026729;-65
2022/04/22 01:02:03;;;;;;;6.50;4.30;;;;;;;7.36;72.63;99535.42;25048;1316;3054840;-68
2022/04/22 01:10:11;;;;;;;31.00;13.40;;;;;;;6.45;75.58;99541.71;25131;1315;3048949;-68
2022/04/22 01:12:59;;;;;;;23.70;9.90;;;;;;;6.37;75.33;99540.13;25073;1315;3054989;-68
2022/04/22 01:15:29;;;;;;;19.60;8.60;;;;;;;6.17;76.29;99543.73;25084;1315;3026507;-66
2022/04/22 01:17:58;;;;;;;8.50;4.70;;;;;;;6.84;75.48;99537.41;25120;1318;3026427;-63
2022/04/22 01:20:47;;;;;;;10.70;4.90;;;;;;;7.24;73.71;99538.61;25055;1318;3052336;-64
2022/04/22 01:23:16;;;;;;;8.60;5.20;;;;;;;7.39;73.13;99540.36;25131;1315;3026718;-63
2022/04/22 01:25:46;;;;;;;8.20;4.70;;;;;;;7.09;73.18;99540.30;25108;1316;3051495;-65
2022/04/22 01:28:15;;;;;;;10.40;4.60;;;;;;;6.94;73.49;99536.09;25104;1315;3026246;-62
2022/04/22 01:30:45;;;;;;;7.90;4.60;;;;;;;6.69;73.89;99536.68;24988;1318;3026535;-65
2022/04/22 01:33:34;;;;;;;6.70;4.70;;;;;;;6.57;73.88;99535.46;25104;1315;3059388;-67
2022/04/22 01:36:03;;;;;;;7.20;4.00;;;;;;;6.29;75.46;99542.03;25085;1315;3026527;-63
2022/04/22 01:38:52;;;;;;;6.30;4.10;;;;;;;6.77;74.99;99538.94;25042;1316;3052633;-65
2022/04/22 01:41:21;;;;;;;7.80;4.20;;;;;;;7.16;73.47;99537.38;25115;1315;3026102;-65
2022/04/22 01:44:10;;;;;;;6.90;4.40;;;;;;;7.04;73.25;99535.98;25122;1315;3052584;-66
2022/04/22 01:46:40;;;;;;;6.70;4.70;;;;;;;6.71;74.08;99540.60;25074;1315;3026861;-69
2022/04/22 01:49:20;;;;;;;7.30;4.60;;;;;;;6.47;74.53;99537.77;25125;1315;3052803;-66
2022/04/22 01:51:50;;;;;;;8.60;5.00;;;;;;;6.45;74.11;99538.38;25085;1316;3026529;-64
2022/04/22 01:54:20;;;;;;;6.30;4.20;;;;;;;6.21;75.45;99538.84;25130;1316;3026943;-64
2022/04/22 01:56:49;;;;;;;4.90;3.60;;;;;;;6.83;74.78;99532.93;25091;1315;3026638;-65
2022/04/22 01:59:20;;;;;;;6.70;3.60;;;;;;;7.27;73.03;99535.83;25111;1315;3053917;-63
2022/04/22 02:01:49;;;;;;;6.40;4.20;;;;;;;7.22;72.85;99537.09;25058;1315;3026839;-65
2022/04/22 02:04:18;;;;;;;6.20;4.50;;;;;;;7.09;72.63;99532.64;25006;1315;3049998;-68
2022/04/22 02:09:43;;;;;;;8.00;5.20;;;;;;;6.55;73.73;99546.66;31547;1318;3030404;-65
2022/04/22 02:12:13;;;;;;;7.40;4.80;;;;;;;6.64;73.87;99550.30;24992;1321;3026360;-64
2022/04/22 02:14:43;;;;;;;9.90;4.50;;;;;;;6.98;73.85;99552.82;24967;1321;3028415;-67
2022/04/22 02:17:31;;;;;;;7.70;5.00;;;;;;;7.11;73.62;99553.48;24941;1321;3059008;-67
2022/04/22 02:20:02;;;;;;;8.90;4.90;;;;;;;6.91;73.44;99553.98;24932;1321;3026933;-66
2022/04/22 02:22:51;;;;;;;7.60;5.20;;;;;;;6.58;74.20;99559.58;24926;1318;3055590;-66
2022/04/22 02:25:21;;;;;;;8.20;4.70;;;;;;;6.41;74.61;99565.18;24986;1318;3026553;-64
2022/04/22 02:30:54;;;;;;;7.70;4.90;;;;;;;6.89;74.93;99569.06;24944;1318;3056670;-64
2022/04/22 02:33:23;;;;;;;9.90;5.60;;;;;;;7.09;74.28;99565.90;25019;1318;3026702;-66
2022/04/22 02:36:11;;;;;;;7.30;4.00;;;;;;;6.89;74.30;99578.11;25032;1318;3052457;-64
2022/04/22 02:38:40;;;;;;;9.20;5.50;;;;;;;6.70;74.52;99573.73;25069;1318;3026758;-67
2022/04/22 02:47:03;;;;;;;7.40;5.20;;;;;;;6.20;75.97;99589.89;25050;1318;3052031;-64
2022/04/22 02:49:32;;;;;;;10.20;5.30;;;;;;;6.68;75.11;99583.52;25063;1319;3026733;-68
2022/04/22 02:52:01;;;;;;;12.70;5.50;;;;;;;6.97;74.46;99587.70;25091;1315;3026567;-66
2022/04/22 02:54:50;;;;;;;8.90;5.90;;;;;;;6.95;74.03;99588.27;25006;1315;3049186;-66
2022/04/22 02:57:22;;;;;;;9.90;5.60;;;;;;;6.89;73.79;99587.50;25157;1314;3027191;-64
2022/04/22 03:00:14;;;;;;;12.10;6.30;;;;;;;6.48;75.03;99594.47;25012;1319;3053573;-64
2022/04/22 03:02:43;;;;;;;9.60;6.30;;;;;;;6.38;75.37;99595.57;25075;1316;3027090;-67
2022/04/22 03:05:34;;;;;;;9.80;5.40;;;;;;;6.20;76.93;99595.44;25049;1315;3049883;-66
2022/04/22 03:08:05;;;;;;;7.50;5.00;;;;;;;6.82;76.17;99593.53;25096;1315;3026282;-64
2022/04/22 03:10:35;;;;;;;6.20;4.30;;;;;;;7.39;74.47;99588.09;25095;1320;3026603;-67
2022/04/22 03:13:23;;;;;;;8.80;3.60;;;;;;;7.53;73.19;99591.61;25048;1314;3069880;-67
2022/04/22 03:15:53;;;;;;;10.30;4.60;;;;;;;7.48;72.99;99593.61;25070;1317;3026489;-63
2022/04/22 03:18:42;;;;;;;10.00;5.70;;;;;;;7.35;73.03;99595.75;25032;1316;3053859;-68
2022/04/22 03:21:12;;;;;;;8.80;6.00;;;;;;;7.14;73.57;99599.31;25105;1318;3026842;-65
2022/04/22 03:23:41;;;;;;;9.40;5.50;;;;;;;6.86;74.40;99601.40;25112;1314;3026227;-67
2022/04/22 03:26:20;;;;;;;8.60;4.30;;;;;;;6.79;74.64;99606.73;25123;1314;3055222;-66
2022/04/22 03:28:52;;;;;;;9.80;5.70;;;;;;;7.49;73.61;99609.75;25095;1315;3026657;-67
2022/04/22 03:31:30;;;;;;;8.70;5.30;;;;;;;7.89;72.39;99612.10;25080;1315;3059148;-68
2022/04/22 03:33:59;;;;;;;10.20;5.70;;;;;;;7.73;71.96;99607.64;25046;1316;3027890;-67
2022/04/22 03:36:49;;;;;;;10.00;6.40;;;;;;;7.58;72.37;99606.77;25065;1315;3051970;-67
2022/04/22 03:39:33;;;;;;;9.20;6.40;;;;;;;7.21;73.11;99607.36;25087;1315;3059347;-64
2022/04/22 03:42:17;;;;;;;11.70;5.90;;;;;;;7.10;73.14;99606.82;25130;1316;3049535;-67
2022/04/22 03:44:45;;;;;;;10.80;6.20;;;;;;;6.84;74.22;99609.15;25022;1315;3029685;-65
2022/04/22 03:47:32;;;;;;;10.60;5.50;;;;;;;6.85;74.45;99610.14;25053;1314;3058515;-65
2022/04/22 03:50:01;;;;;;;8.30;5.10;;;;;;;7.53;73.24;99610.64;25088;1315;3026834;-64
2022/04/22 03:52:50;;;;;;;11.70;6.50;;;;;;;7.98;71.63;99612.56;25097;1315;3052617;-67
2022/04/22 03:55:19;;;;;;;10.40;7.00;;;;;;;7.73;71.99;99617.20;25077;1319;3026768;-68
2022/04/22 03:58:11;;;;;;;12.80;7.80;;;;;;;7.50;72.93;99615.33;25089;1316;3052073;-64
2022/04/22 04:00:46;;;;;;;12.40;8.20;;;;;;;7.29;73.38;99610.12;25054;1316;3026869;-67
2022/04/22 04:03:26;;;;;;;18.00;9.80;;;;;;;7.11;73.92;99618.59;25114;1314;3058901;-66
2022/04/22 04:05:55;;;;;;;14.20;10.10;;;;;;;7.10;73.29;99616.20;25110;1315;3026317;-67
2022/04/22 04:15:57;;;;;;;18.60;10.70;;;;;;;6.87;74.36;99619.83;25080;1315;3052986;-66
2022/04/22 04:17:19;;;;;;;18.60;11.10;;;;;;;8.14;71.16;99619.13;25089;1314;3051850;-68
2022/04/22 04:23:14;;;;;;;16.80;10.30;;;;;;;7.77;71.41;99626.98;25116;1315;3052554;-65
2022/04/22 04:25:44;;;;;;;17.40;10.40;;;;;;;7.55;71.91;99626.57;25064;1314;3056519;-67
2022/04/22 04:28:15;;;;;;;19.80;11.50;;;;;;;7.27;72.81;99629.92;25048;1315;3026833;-64
2022/04/22 04:30:45;;;;;;;20.60;12.30;;;;;;;7.07;73.59;99634.30;25118;1314;3026844;-65
2022/04/22 04:33:14;;;;;;;24.30;14.30;;;;;;;6.91;74.31;99626.05;25105;1316;3055822;-66
2022/04/22 04:35:53;;;;;;;20.60;10.90;;;;;;;6.92;74.97;99622.88;25083;1315;3050977;-66
2022/04/22 04:38:23;;;;;;;21.70;10.60;;;;;;;7.63;73.43;99620.97;25122;1314;3026494;-67
2022/04/22 04:40:52;;;;;;;16.10;9.60;;;;;;;8.35;71.47;99618.29;25103;1315;3026423;-67
2022/04/22 04:43:21;;;;;;;17.10;9.50;;;;;;;8.64;70.32;99621.59;25081;1315;3026470;-65
2022/04/22 04:46:10;;;;;;;16.30;9.50;;;;;;;8.59;69.35;99624.50;25087;1315;3055833;-68
2022/04/22 04:48:39;;;;;;;24.20;10.20;;;;;;;8.49;69.59;99626.20;25066;1315;3026302;-68
2022/04/22 04:51:27;;;;;;;18.50;11.20;;;;;;;8.33;69.94;99627.29;25078;1314;3052781;-62
2022/04/22 04:53:58;;;;;;;17.40;11.40;;;;;;;8.34;70.24;99630.05;25129;1315;3029314;-65
2022/04/22 04:56:46;;;;;;;18.10;9.90;;;;;;;8.27;70.46;99631.60;25047;1317;3053322;-67
2022/04/22 04:59:16;;;;;;;19.50;10.40;;;;;;;8.19;70.71;99635.98;25064;1314;3027629;-65
2022/04/22 05:02:05;;;;;;;13.40;8.50;;;;;;;8.09;71.23;99640.28;25052;1317;3055596;-66
2022/04/22 05:04:34;;;;;;;17.90;9.00;;;;;;;8.09;71.15;99643.09;25116;1315;3026755;-66
2022/04/22 05:07:23;;;;;;;14.30;7.40;;;;;;;7.87;71.80;99647.80;25078;1315;3052865;-67
2022/04/22 05:09:52;;;;;;;12.30;7.10;;;;;;;8.44;70.61;99646.98;25076;1314;3028608;-69
2022/04/22 05:12:22;;;;;;;11.90;7.50;;;;;;;9.23;68.10;99633.80;25125;1315;3058776;-70
2022/04/22 05:15:11;;;;;;;13.70;8.30;;;;;;;9.45;66.90;99633.01;25101;1315;3049890;-67
2022/04/22 05:17:42;;;;;;;16.70;8.50;;;;;;;9.45;66.60;99630.55;25454;1314;3027284;-67
2022/04/22 05:20:15;;;;;;;12.60;8.60;;;;;;;9.35;66.48;99636.66;25448;1316;3026200;-64
2022/04/22 05:22:56;;;;;;;15.10;9.00;;;;;;;9.10;67.22;99641.27;25324;1315;3070966;-67
2022/04/22 05:25:25;;;;;;;16.90;9.90;;;;;;;9.19;67.69;99644.30;25123;1315;3030327;-67
2022/04/22 05:28:14;;;;;;;16.00;9.30;;;;;;;9.14;67.64;99644.71;25107;1316;3051071;-67
2022/04/22 05:33:57;;;;;;;17.00;9.50;;;;;;;9.01;68.29;99647.31;25070;1314;3053408;-66
2022/04/22 05:36:27;;;;;;;17.60;10.30;;;;;;;8.91;68.72;99642.60;25116;1315;3026827;-66
2022/04/22 05:39:15;;;;;;;29.20;14.70;;;;;;;8.89;68.71;99642.70;25063;1318;3049992;-68
2022/04/22 05:41:44;;;;;;;32.30;16.80;;;;;;;8.78;69.62;99645.88;25156;1314;3026506;-69
2022/04/22 05:44:13;;;;;;;27.40;14.70;;;;;;;8.66;70.14;99650.86;25082;1314;3058227;-69
2022/04/22 05:46:43;;;;;;;24.80;12.60;;;;;;;8.86;69.62;99652.48;25110;1317;3026374;-67
2022/04/22 05:49:11;;;;;;;19.20;10.30;;;;;;;8.82;69.61;99655.32;25104;1314;3028979;-67
2022/04/22 05:51:42;;;;;;;19.40;11.40;;;;;;;8.80;69.41;99659.20;25138;1314;3056313;-66
2022/04/22 05:54:11;;;;;;;22.20;11.50;;;;;;;8.80;69.51;99663.05;25087;1315;3026296;-70
2022/04/22 05:56:39;;;;;;;15.40;7.60;;;;;;;8.76;69.36;99660.50;25112;1318;3055076;-71
2022/04/22 05:59:10;;;;;;;12.30;6.50;;;;;;;9.49;67.69;99653.94;25147;1314;3026386;-68
2022/04/22 06:01:40;;;;;;;24.90;8.00;;;;;;;9.73;65.68;99650.55;25108;1314;3026745;-67
2022/04/22 06:04:09;;;;;;;14.30;8.80;;;;;;;9.76;65.41;99656.55;25117;1314;3027127;-65
2022/04/22 06:06:42;;;;;;;19.10;8.20;;;;;;;9.84;64.95;99663.25;25127;1315;3058641;-66
2022/04/22 06:12:01;;;;;;;17.60;9.10;;;;;;;9.33;66.71;99674.21;25083;1314;3056466;-66
2022/04/22 06:14:30;;;;;;;13.10;8.00;;;;;;;9.26;66.67;99677.48;25107;1318;3027788;-71
2022/04/22 06:16:59;;;;;;;13.60;7.80;;;;;;;9.20;66.76;99680.08;25094;1317;3026097;-67
2022/04/22 06:19:48;;;;;;;11.20;7.70;;;;;;;8.87;67.49;99685.77;25132;1314;3053154;-65
2022/04/22 06:22:20;;;;;;;15.70;7.30;;;;;;;9.07;66.87;99689.46;25117;1316;3028756;-70
2022/04/22 06:24:49;;;;;;;13.30;8.10;;;;;;;8.81;67.79;99690.62;25068;1314;3026567;-66
2022/04/22 06:27:39;;;;;;;10.80;7.80;;;;;;;8.45;69.09;99697.77;25106;1317;3051947;-67
2022/04/22 06:30:13;;;;;;;11.50;8.10;;;;;;;8.29;69.78;99697.98;25132;1314;3027127;-70
2022/04/22 06:33:03;;;;;;;10.40;8.10;;;;;;;8.28;70.13;99700.80;25100;1315;3057042;-68
2022/04/22 06:35:35;;;;;;;14.60;9.40;;;;;;;8.21;70.95;99701.50;25087;1315;3057144;-69
2022/04/22 06:38:05;;;;;;;12.90;8.10;;;;;;;8.23;71.12;99699.48;25083;1314;3026964;-71
2022/04/22 06:46:31;;;;;;;10.70;7.30;;;;;;;9.58;66.56;99692.29;25094;1315;3049857;-72
2022/04/22 06:49:20;;;;;;;9.30;6.70;;;;;;;9.73;65.64;99686.61;25072;1314;3053159;-67
2022/04/22 06:51:50;;;;;;;8.30;6.30;;;;;;;9.81;64.89;99680.25;25133;1315;3026146;-65
2022/04/22 06:54:39;;;;;;;7.40;6.00;;;;;;;9.66;64.16;99686.11;25067;1315;3071338;-67
2022/04/22 06:57:09;;;;;;;12.20;8.70;;;;;;;9.55;65.12;99684.56;25113;1315;3026955;-67
2022/04/22 06:59:39;;;;;;;16.00;9.20;;;;;;;9.73;65.45;99685.01;25138;1314;3053750;-70
2022/04/22 07:02:19;;;;;;;12.30;7.90;;;;;;;9.88;65.41;99686.48;25071;1314;3071127;-68
2022/04/22 07:04:50;;;;;;;24.20;10.20;;;;;;;9.92;64.61;99682.45;25086;1317;3026826;-68
2022/04/22 07:07:21;;;;;;;12.80;9.70;;;;;;;9.86;65.01;99682.77;25134;1315;3051412;-69
2022/04/22 07:09:50;;;;;;;17.30;10.70;;;;;;;10.01;64.93;99685.13;25069;1317;3026495;-68
2022/04/22 07:12:24;;;;;;;10.60;8.80;;;;;;;9.90;64.67;99690.25;25123;1317;3054034;-71
2022/04/22 07:15:03;;;;;;;14.40;10.10;;;;;;;9.96;63.82;99689.91;25096;1317;3054434;-70
2022/04/22 07:17:33;;;;;;;12.80;9.40;;;;;;;10.09;64.25;99690.57;25093;1317;3026509;-66
2022/04/22 07:20:09;;;;;;;14.70;10.80;;;;;;;10.39;63.18;99690.90;25106;1317;3026933;-69
2022/04/22 07:22:45;;;;;;;10.90;7.70;;;;;;;10.49;62.21;99689.64;25123;1315;3054751;-71
2022/04/22 07:25:15;;;;;;;10.90;6.30;;;;;;;10.52;60.30;99693.52;25077;1314;3026770;-67
2022/04/22 07:28:05;;;;;;;13.10;7.50;;;;;;;10.66;60.07;99695.53;25121;1314;3056404;-68
2022/04/22 07:30:35;;;;;;;11.50;6.50;;;;;;;10.73;59.64;99693.37;25084;1315;3026679;-70
2022/04/22 07:33:05;;;;;;;4.90;4.30;;;;;;;10.77;57.85;99691.02;25100;1314;3025883;-67
2022/04/22 07:35:54;;;;;;;10.10;7.80;;;;;;;10.83;58.12;99687.55;25115;1315;3051552;-69
2022/04/22 07:38:24;;;;;;;10.50;7.20;;;;;;;10.88;58.78;99688.09;25086;1314;3027298;-66
2022/04/22 07:41:17;;;;;;;10.50;7.50;;;;;;;10.95;57.64;99691.02;25099;1315;3053082;-69
2022/04/22 07:46:58;;;;;;;15.00;7.20;;;;;;;11.16;57.67;99692.77;25089;1317;3071348;-71
2022/04/22 07:49:28;;;;;;;14.60;8.20;;;;;;;11.10;57.88;99698.06;25132;1314;3049228;-65
2022/04/22 07:52:17;;;;;;;9.30;5.70;;;;;;;11.33;57.38;99688.77;25073;1314;3052318;-69
2022/04/22 07:54:46;;;;;;;5.00;4.40;;;;;;;11.50;55.19;99693.59;25124;1314;3026584;-70
2022/04/22 07:57:35;;;;;;;7.70;5.30;;;;;;;11.56;54.15;99690.05;25068;1314;3052005;-71
2022/04/22 08:00:10;;;;;;;11.40;6.20;;;;;;;11.71;54.66;99689.81;25131;1314;3026309;-66
2022/04/22 08:03:02;;;;;;;13.60;6.70;;;;;;;11.66;55.52;99699.09;25052;1317;3055300;-64
2022/04/22 08:05:31;;;;;;;9.00;6.10;;;;;;;11.87;55.69;99699.73;25099;1314;3026554;-69
2022/04/22 08:08:01;;;;;;;12.10;6.70;;;;;;;12.02;54.91;99698.30;25109;1317;3055200;-69
2022/04/22 08:10:49;;;;;;;12.50;6.80;;;;;;;11.94;55.28;99698.77;25070;1314;3055133;-70
2022/04/22 08:13:20;;;;;;;12.80;6.40;;;;;;;12.15;53.98;99693.96;25150;1314;3028939;-70
2022/04/22 08:15:49;;;;;;;10.90;6.40;;;;;;;12.20;53.63;99692.09;25115;1314;3027365;-67
2022/04/22 08:18:38;;;;;;;14.50;6.10;;;;;;;12.21;54.30;99692.89;25123;1315;3055191;-69
2022/04/22 08:21:08;;;;;;;13.60;7.10;;;;;;;12.03;53.57;99695.09;25126;1314;3027004;-68
2022/04/22 08:23:39;;;;;;;16.50;5.60;;;;;;;12.12;53.38;99692.44;25117;1314;3029611;-71
2022/04/22 08:26:31;;;;;;;9.30;5.40;;;;;;;12.38;52.63;99690.07;25129;1317;3057208;-69
2022/04/22 08:29:19;;;;;;;10.20;5.80;;;;;;;12.51;52.65;99683.45;25068;1317;3051473;-65
2022/04/22 08:31:52;;;;;;;8.20;5.80;;;;;;;12.66;52.93;99681.41;25115;1314;3026233;-71
2022/04/22 08:34:23;;;;;;;11.80;5.80;;;;;;;12.80;52.78;99679.25;25089;1315;3053558;-66
2022/04/22 08:36:52;;;;;;;10.40;6.30;;;;;;;12.79;52.59;99680.39;25122;1315;3026577;-65
2022/04/22 08:39:35;;;;;;;10.30;6.40;;;;;;;12.61;53.92;99675.77;25065;1317;3052299;-69
2022/04/22 08:42:05;;;;;;;8.00;6.30;;;;;;;12.59;54.51;99679.02;25165;1315;3028972;-69
2022/04/22 08:44:54;;;;;;;8.50;5.10;;;;;;;12.64;53.70;99683.45;25114;1317;3056502;-69
2022/04/22 08:50:30;;;;;;;8.40;5.80;;;;;;;12.59;53.09;99683.05;25141;1315;3051581;-69
2022/04/22 08:53:04;;;;;;;8.20;6.50;;;;;;;12.88;53.07;99680.48;25116;1314;3026345;-70
2022/04/22 08:55:57;;;;;;;12.00;6.10;;;;;;;12.96;53.45;99677.32;25063;1314;3050199;-68
2022/04/22 08:58:26;;;;;;;11.20;6.70;;;;;;;13.02;52.88;99684.61;25092;1315;3026922;-66
2022/04/22 09:01:16;;;;;;;7.60;5.50;;;;;;;13.15;51.54;99680.05;25078;1314;3051443;-69
2022/04/22 09:03:46;;;;;;;11.20;5.80;;;;;;;13.42;51.12;99676.14;25100;1315;3028896;-65
2022/04/22 09:06:35;;;;;;;7.20;5.50;;;;;;;13.58;50.78;99681.57;25121;1314;3051919;-70
2022/04/22 09:09:10;;;;;;;5.20;4.70;;;;;;;13.80;49.05;99680.40;25096;1317;3051901;-69
2022/04/22 09:11:42;;;;;;;5.70;4.40;;;;;;;13.78;48.32;99680.16;25116;1318;3026787;-69
2022/04/22 09:14:31;;;;;;;8.00;5.10;;;;;;;13.78;48.09;99679.45;25063;1316;3056355;-70
2022/04/22 09:17:01;;;;;;;6.50;5.30;;;;;;;13.96;48.05;99680.83;25110;1314;3027719;-68
2022/04/22 09:19:35;;;;;;;8.00;5.70;;;;;;;13.95;48.28;99677.00;25126;1315;3027154;-71
2022/04/22 09:22:25;;;;;;;8.80;5.80;;;;;;;14.21;48.50;99678.70;25110;1315;3051398;-69
2022/04/22 09:25:00;;;;;;;10.50;6.40;;;;;;;14.19;48.57;99676.38;25114;1314;3071081;-72
2022/04/22 09:27:32;;;;;;;13.00;5.60;;;;;;;14.32;48.47;99675.27;25055;1317;3026552;-71
2022/04/22 09:30:22;;;;;;;7.00;5.30;;;;;;;14.29;48.00;99675.51;25081;1315;3050410;-70
2022/04/22 09:32:51;;;;;;;6.20;4.50;;;;;;;14.34;47.71;99680.72;25032;1317;3027423;-71
2022/04/22 09:35:21;;;;;;;6.80;4.90;;;;;;;14.42;46.81;99679.98;25085;1314;3026736;-66
2022/04/22 09:43:39;;;;;;;7.50;4.90;;;;;;;14.27;46.17;99679.13;25479;1314;3056929;-67
2022/04/22 09:46:20;;;;;;;7.00;5.60;;;;;;;14.14;47.55;99683.04;25507;1315;3048940;-68
2022/04/22 09:48:49;;;;;;;6.60;4.80;;;;;;;14.23;47.06;99682.97;25270;1314;3053307;-69
2022/04/22 09:51:30;;;;;;;8.80;5.40;;;;;;;14.30;46.54;99681.95;25078;1314;3026892;-73
2022/04/22 09:53:59;;;;;;;8.50;5.20;;;;;;;14.14;46.60;99683.92;25052;1317;3071762;-72
2022/04/22 09:56:55;;;;;;;7.10;5.40;;;;;;;14.06;46.94;99683.64;25086;1316;3049426;-70
2022/04/22 09:59:28;;;;;;;10.60;5.60;;;;;;;14.36;47.48;99683.93;25105;1317;3051804;-70
2022/04/22 10:02:21;;;;;;;8.40;7.10;;;;;;;14.71;46.84;99688.64;25077;1314;3053325;-70
2022/04/22 10:04:54;;;;;;;12.00;8.50;;;;;;;14.55;47.79;99688.02;25171;1314;3027287;-70
2022/04/22 10:07:27;;;;;;;10.30;7.80;;;;;;;14.82;47.60;99686.44;25096;1314;3026783;-69
2022/04/22 10:10:16;;;;;;;14.40;7.10;;;;;;;15.10;47.05;99676.54;25097;1314;3053214;-69
2022/04/22 10:13:04;;;;;;;10.40;7.20;;;;;;;15.24;46.74;99679.05;25108;1317;3054062;-68
2022/04/22 10:15:37;;;;;;;11.80;6.90;;;;;;;15.13;46.36;99673.88;25086;1314;3028740;-68
2022/04/22 10:18:26;;;;;;;11.10;7.30;;;;;;;14.82;46.10;99671.27;25093;1317;3055741;-69
2022/04/22 10:20:59;;;;;;;8.90;6.90;;;;;;;14.78;46.11;99669.95;25114;1314;3027764;-69
2022/04/22 10:23:31;;;;;;;6.80;5.50;;;;;;;14.95;45.58;99667.77;25133;1318;3028669;-69
2022/04/22 10:26:05;;;;;;;6.50;5.00;;;;;;;15.11;43.29;99668.73;25121;1314;3027576;-70
2022/04/22 10:28:56;;;;;;;8.60;5.60;;;;;;;15.06;42.01;99675.79;25080;1315;3051131;-67
2022/04/22 10:31:26;;;;;;;11.30;4.90;;;;;;;15.13;42.27;99669.42;25132;1314;3026528;-71
2022/04/22 10:34:14;;;;;;;10.10;5.40;;;;;;;15.56;42.64;99670.52;25024;1317;3058911;-72
2022/04/22 10:36:44;;;;;;;7.20;4.80;;;;;;;15.73;41.67;99666.43;25068;1317;3026781;-69
2022/04/22 10:39:31;;;;;;;8.10;5.20;;;;;;;15.74;42.18;99674.48;25106;1314;3052551;-70
2022/04/22 10:42:00;;;;;;;8.50;5.80;;;;;;;15.27;43.91;99670.68;25120;1314;3059368;-71
2022/04/22 10:47:41;;;;;;;6.30;4.90;;;;;;;15.44;43.28;99670.27;25010;1317;3053336;-70
2022/04/22 10:50:41;;;;;;;8.80;5.60;;;;;;;15.50;42.95;99669.23;25102;1314;3050306;-64
2022/04/22 10:53:27;;;;;;;9.50;5.90;;;;;;;15.43;43.34;99665.95;25110;1317;3071585;-70
2022/04/22 10:56:28;;;;;;;7.20;5.10;;;;;;;15.43;43.19;99670.02;25153;1314;3051746;-68
2022/04/22 10:59:32;;;;;;;8.10;4.10;;;;;;;15.44;41.52;99661.42;25094;1314;3054990;-72
2022/04/22 11:02:31;;;;;;;5.40;4.40;;;;;;;15.40;41.61;99659.47;25120;1315;3053978;-66
2022/04/22 11:05:18;;;;;;;5.80;4.40;;;;;;;15.92;41.00;99656.15;25083;1318;3058831;-70
2022/04/22 11:08:07;;;;;;;8.40;4.00;;;;;;;16.13;39.90;99656.71;25079;1315;3053051;-70
2022/04/22 11:10:48;;;;;;;11.40;4.90;;;;;;;16.08;39.56;99659.40;25105;1317;3026793;-69
2022/04/22 11:13:50;;;;;;;9.50;3.80;;;;;;;15.84;39.30;99656.23;25160;1314;3054783;-69
2022/04/22 11:16:30;;;;;;;6.60;4.40;;;;;;;15.86;39.52;99655.12;25085;1317;3071366;-70
2022/04/22 11:19:17;;;;;;;7.90;3.70;;;;;;;16.20;39.40;99647.30;25142;1314;3026196;-72
2022/04/22 11:22:07;;;;;;;7.60;4.40;;;;;;;16.09;38.27;99641.65;25151;1315;3050467;-74
2022/04/22 11:24:36;;;;;;;6.20;3.90;;;;;;;16.24;37.78;99640.30;25097;1314;3026106;-68
2022/04/22 11:27:11;;;;;;;6.60;4.00;;;;;;;16.28;37.32;99639.09;25114;1314;3026199;-63
2022/04/22 11:30:00;;;;;;;6.20;4.30;;;;;;;16.46;36.62;99638.88;25116;1315;3052413;-71
2022/04/22 11:32:29;;;;;;;6.20;4.00;;;;;;;15.78;37.44;99642.02;25058;1315;3028206;-70
2022/04/22 11:35:21;;;;;;;5.40;3.80;;;;;;;15.29;38.08;99639.31;25082;1316;3048934;-72
2022/04/22 11:38:00;;;;;;;9.40;4.40;;;;;;;15.79;37.75;99636.30;25103;1314;3054486;-68
2022/04/22 11:40:34;;;;;;;8.10;5.00;;;;;;;15.92;37.78;99639.69;25080;1318;3052438;-70
2022/04/22 11:43:08;;;;;;;8.20;4.40;;;;;;;16.36;36.77;99631.67;25106;1314;3056428;-71
2022/04/22 11:45:41;;;;;;;6.90;4.00;;;;;;;16.86;35.76;99622.07;25094;1314;3050979;-73
2022/04/22 11:48:30;;;;;;;9.30;4.60;;;;;;;17.09;34.21;99631.48;25065;1315;3052962;-66
2022/04/22 11:51:00;;;;;;;5.90;4.00;;;;;;;16.96;34.40;99633.86;25079;1315;3026594;-67
2022/04/22 11:53:52;;;;;;;5.30;3.90;;;;;;;16.95;34.79;99638.16;25133;1314;3071146;-70
2022/04/22 11:56:22;;;;;;;5.50;4.10;;;;;;;17.00;35.27;99641.51;25090;1314;3026489;-66
2022/04/22 11:58:53;;;;;;;6.30;4.40;;;;;;;16.98;35.59;99648.91;25118;1314;3026859;-64
2022/04/22 12:10:09;;;;;;;7.40;4.60;;;;;;;16.34;38.05;99634.56;25066;1315;3053552;-70
2022/04/22 12:12:48;;;;;;;7.30;4.40;;;;;;;16.24;38.26;99633.76;25018;1315;3026875;-66
2022/04/22 12:15:20;;;;;;;10.00;5.60;;;;;;;16.19;38.36;99631.36;25106;1314;3071601;-65
2022/04/22 12:17:49;;;;;;;6.90;4.80;;;;;;;16.04;38.77;99639.21;25093;1314;3026663;-70
2022/04/22 12:20:19;;;;;;;6.40;4.80;;;;;;;15.67;40.14;99631.43;25081;1318;3026940;-66
2022/04/22 12:22:49;;;;;;;8.50;4.50;;;;;;;15.75;40.07;99632.34;25104;1317;3026800;-70
2022/04/22 12:25:19;;;;;;;5.60;4.30;;;;;;;15.84;39.90;99629.36;25074;1315;3050807;-66
2022/04/22 12:28:13;;;;;;;8.90;5.00;;;;;;;15.83;40.26;99636.49;25136;1314;3051817;-67
2022/04/22 12:30:43;;;;;;;7.80;5.30;;;;;;;15.71;40.23;99629.36;25137;1315;3055446;-63
2022/04/22 12:33:23;;;;;;;7.10;4.80;;;;;;;15.57;40.08;99621.05;25134;1314;3027178;-65
2022/04/22 12:36:08;;;;;;;9.60;4.90;;;;;;;15.44;40.44;99624.34;25117;1318;3051488;-70
2022/04/22 12:38:37;;;;;;;10.60;5.50;;;;;;;15.24;41.03;99624.89;25116;1314;3052821;-66
2022/04/22 12:41:19;;;;;;;7.20;5.10;;;;;;;15.38;41.45;99619.72;25116;1315;3028537;-66
2022/04/22 12:43:53;;;;;;;7.20;5.40;;;;;;;15.34;41.78;99621.83;25093;1314;3071285;-69
2022/04/22 12:52:25;;;;;;;6.40;5.20;;;;;;;14.69;42.27;99627.27;25092;1314;3055405;-65
2022/04/22 12:55:05;;;;;;;9.60;6.50;;;;;;;14.74;42.44;99632.69;25131;1314;3056763;-70
2022/04/22 12:57:39;;;;;;;11.50;6.50;;;;;;;14.62;44.39;99634.61;25102;1314;3052533;-67
2022/04/22 13:00:18;;;;;;;11.60;7.10;;;;;;;14.66;44.93;99632.23;25130;1315;3055262;-68
2022/04/22 13:02:49;;;;;;;11.30;7.10;;;;;;;14.55;45.85;99631.27;25087;1314;3051450;-67
2022/04/22 13:05:20;;;;;;;11.20;7.10;;;;;;;14.56;45.77;99630.98;25101;1317;3026445;-65
2022/04/22 13:07:50;;;;;;;15.20;6.90;;;;;;;14.48;46.36;99631.82;25156;1315;3026216;-67
2022/04/22 13:10:22;;;;;;;11.30;6.70;;;;;;;14.54;46.51;99636.46;25140;1316;3027323;-67